createdAt,value
2022-08-26T00:02:41.054Z,61.94
2022-08-26T00:05:28.590Z,62.02
2022-08-26T00:08:16.759Z,61.85
2022-08-26T00:11:04.660Z,62.01
2022-08-26T00:13:51.735Z,62.07
2022-08-26T00:16:41.016Z,61.84
2022-08-26T00:19:14.520Z,61.95
2022-08-26T00:21:41.561Z,61.90
2022-08-26T00:24:08.311Z,62.01
2022-08-26T00:26:35.038Z,62.13
2022-08-26T00:29:01.934Z,62.09
2022-08-26T00:31:31.232Z,62.02
2022-08-26T00:33:59.437Z,62.16
2022-08-26T00:36:29.830Z,62.19
2022-08-26T00:38:58.130Z,62.28
2022-08-26T00:41:24.921Z,62.46
2022-08-26T00:43:53.432Z,62.44
2022-08-26T00:46:50.967Z,62.62
2022-08-26T00:49:45.030Z,62.95
2022-08-26T00:52:32.347Z,62.80
2022-08-26T00:55:41.294Z,62.97
2022-08-26T00:58:31.812Z,63.03
2022-08-26T01:01:19.335Z,63.12
2022-08-26T01:04:13.923Z,63.27
2022-08-26T01:07:02.161Z,63.55
2022-08-26T01:09:49.720Z,63.68
2022-08-26T01:12:53.635Z,63.89
2022-08-26T01:15:47.905Z,63.81
2022-08-26T01:18:36.038Z,64.10
2022-08-26T01:22:03.870Z,64.41
2022-08-26T01:24:51.087Z,64.29
2022-08-26T01:27:38.813Z,64.33
2022-08-26T01:30:28.145Z,64.48
2022-08-26T01:33:19.493Z,64.60
2022-08-26T01:40:14.085Z,65.00
2022-08-26T01:51:18.688Z,65.42
2022-08-26T01:58:37.150Z,65.70
2022-08-26T02:01:04.515Z,65.87
2022-08-26T02:03:59.072Z,66.15
2022-08-26T02:06:25.959Z,66.13
2022-08-26T02:08:55.612Z,66.23
2022-08-26T02:11:40.575Z,66.37
2022-08-26T02:14:16.290Z,66.37
2022-08-26T02:16:47.278Z,66.51
2022-08-26T02:19:18.186Z,66.57
2022-08-26T02:21:51.180Z,66.76
2022-08-26T02:24:27.318Z,67.28
2022-08-26T02:26:56.019Z,67.88
2022-08-26T02:29:27.838Z,68.19
2022-08-26T02:31:55.845Z,68.11
2022-08-26T02:34:31.328Z,68.42
2022-08-26T02:37:06.285Z,69.02
2022-08-26T02:39:36.703Z,69.13
2022-08-26T02:42:05.502Z,69.40
2022-08-26T02:44:32.951Z,69.75
2022-08-26T02:47:01.077Z,69.90
2022-08-26T02:49:30.557Z,70.27
2022-08-26T02:51:57.948Z,70.57
2022-08-26T02:54:29.023Z,70.71
2022-08-26T02:56:56.465Z,71.43
2022-08-26T02:59:24.252Z,71.48
2022-08-26T03:02:42.174Z,71.96
2022-08-26T03:05:29.319Z,71.94
2022-08-26T03:08:14.395Z,72.13
2022-08-26T03:10:41.322Z,72.11
2022-08-26T03:13:08.384Z,72.34
2022-08-26T03:15:36.352Z,72.50
2022-08-26T03:18:04.972Z,72.64
2022-08-26T03:20:32.164Z,72.74
2022-08-26T03:22:59.034Z,72.87
2022-08-26T03:29:37.399Z,73.05
2022-08-26T03:32:19.240Z,73.19
2022-08-26T03:34:47.110Z,73.22
2022-08-26T03:37:14.271Z,73.48
2022-08-26T03:39:41.786Z,73.69
2022-08-26T03:42:08.688Z,73.95
2022-08-26T03:44:37.818Z,73.93
2022-08-26T03:47:08.938Z,73.93
2022-08-26T03:57:37.227Z,73.78
2022-08-26T04:01:06.209Z,74.00
2022-08-26T04:03:52.708Z,74.16
2022-08-26T04:06:19.528Z,74.40
2022-08-26T04:08:46.368Z,74.90
2022-08-26T04:11:19.782Z,74.85
2022-08-26T04:13:49.722Z,75.27
2022-08-26T04:16:18.189Z,75.09
2022-08-26T04:18:46.762Z,75.20
2022-08-26T04:21:15.395Z,75.50
2022-08-26T04:28:10.703Z,74.87
2022-08-26T04:30:40.775Z,74.83
2022-08-26T04:33:32.425Z,75.20
2022-08-26T04:36:02.247Z,75.05
2022-08-26T04:39:06.341Z,75.26
2022-08-26T04:41:33.909Z,75.28
2022-08-26T04:44:13.847Z,75.45
2022-08-26T04:46:43.878Z,75.36
2022-08-26T04:49:35.097Z,75.40
2022-08-26T04:52:03.885Z,75.61
2022-08-26T04:55:12.227Z,75.69
2022-08-26T04:57:40.785Z,75.88
2022-08-26T05:00:12.288Z,76.15
2022-08-26T05:03:27.494Z,76.55
2022-08-26T05:05:58.459Z,76.56
2022-08-26T05:09:07.261Z,76.82
2022-08-26T05:11:34.262Z,76.77
2022-08-26T05:14:02.376Z,77.05
2022-08-26T05:31:52.803Z,78.01
2022-08-26T05:34:23.237Z,78.55
2022-08-26T05:36:52.713Z,78.80
2022-08-26T05:39:21.502Z,79.26
2022-08-26T05:41:48.231Z,79.73
2022-08-26T05:44:17.487Z,80.03
2022-08-26T05:46:45.692Z,80.16
2022-08-26T05:49:14.542Z,80.37
2022-08-26T05:51:45.292Z,80.44
2022-08-26T05:54:13.111Z,80.59
2022-08-26T05:56:40.078Z,80.55
2022-08-26T05:59:14.537Z,80.50
2022-08-26T06:01:43.799Z,80.69
2022-08-26T06:04:12.025Z,80.65
2022-08-26T06:06:43.072Z,80.41
2022-08-26T06:09:12.127Z,80.60
2022-08-26T06:11:39.797Z,80.76
2022-08-26T06:14:07.998Z,80.82
2022-08-26T06:16:38.731Z,80.64
2022-08-26T06:19:10.614Z,80.54
2022-08-26T06:21:40.509Z,80.66
2022-08-26T06:24:30.481Z,80.52
2022-08-26T06:27:03.298Z,80.60
2022-08-26T06:29:33.845Z,80.67
2022-08-26T06:32:02.765Z,80.55
2022-08-26T06:34:30.327Z,80.47
2022-08-26T06:37:01.223Z,80.34
2022-08-26T06:39:30.853Z,80.19
2022-08-26T06:42:02.724Z,80.23
2022-08-26T06:44:30.441Z,80.26
2022-08-26T06:46:57.362Z,79.94
2022-08-26T06:49:26.560Z,79.90
2022-08-26T06:52:00.183Z,80.01
2022-08-26T06:54:31.832Z,79.91
2022-08-26T06:56:59.161Z,79.83
2022-08-26T06:59:26.211Z,79.57
2022-08-26T07:01:54.857Z,79.54
2022-08-26T07:04:23.248Z,79.42
2022-08-26T07:06:53.349Z,79.12
2022-08-26T07:09:23.290Z,79.32
2022-08-26T07:11:51.554Z,78.94
2022-08-26T07:14:19.304Z,78.53
2022-08-26T07:16:49.234Z,78.42
2022-08-26T07:19:31.240Z,78.57
2022-08-26T07:22:03.504Z,78.50
2022-08-26T07:24:35.341Z,78.76
2022-08-26T07:31:15.397Z,78.79
2022-08-26T07:33:44.345Z,78.75
2022-08-26T07:36:13.399Z,78.99
2022-08-26T07:38:41.795Z,78.88
2022-08-26T07:41:09.128Z,79.32
2022-08-26T07:43:37.574Z,79.77
2022-08-26T07:46:07.238Z,79.56
2022-08-26T07:48:36.500Z,79.75
2022-08-26T07:51:06.094Z,79.96
2022-08-26T07:53:34.890Z,80.03
2022-08-26T08:00:16.174Z,80.27
2022-08-26T08:03:05.848Z,80.25
2022-08-26T08:06:47.339Z,80.51
2022-08-26T08:09:16.038Z,80.36
2022-08-26T08:12:37.239Z,80.54
2022-08-26T08:19:39.628Z,80.55
2022-08-26T08:23:08.477Z,80.43
2022-08-26T08:29:43.607Z,80.45
2022-08-26T08:40:45.855Z,80.52
2022-08-26T08:47:57.120Z,80.87
2022-08-26T08:50:42.182Z,80.93
2022-08-26T08:53:18.245Z,80.78
2022-08-26T08:59:47.669Z,80.24
2022-08-26T09:02:29.492Z,80.29
2022-08-26T09:05:34.055Z,80.58
2022-08-26T09:08:11.893Z,80.14
2022-08-26T09:10:47.218Z,79.92
2022-08-26T09:13:25.255Z,79.33
2022-08-26T09:16:09.930Z,79.08
2022-08-26T09:19:11.271Z,78.98
2022-08-26T09:21:38.462Z,78.97
2022-08-26T09:24:06.985Z,78.84
2022-08-26T09:34:20.016Z,78.25
2022-08-26T09:36:53.570Z,78.14
2022-08-26T09:43:33.675Z,77.55
2022-08-26T09:50:36.616Z,77.43
2022-08-26T10:05:19.353Z,76.43
2022-08-26T10:07:50.183Z,76.07
2022-08-26T10:10:53.311Z,75.72
2022-08-26T10:21:02.793Z,74.82
2022-08-26T10:23:56.265Z,74.69
2022-08-26T10:31:00.850Z,74.10
2022-08-26T10:33:27.786Z,73.78
2022-08-26T10:37:14.181Z,73.38
2022-08-26T10:48:12.566Z,73.14
2022-08-26T10:51:02.306Z,73.10
2022-08-26T10:58:26.701Z,73.02
2022-08-26T11:05:26.137Z,72.73
2022-08-26T11:08:20.545Z,72.24
2022-08-26T11:15:53.750Z,71.72
2022-08-26T11:18:42.801Z,71.93
2022-08-26T11:25:30.900Z,71.22
2022-08-26T11:28:05.585Z,71.09
2022-08-26T11:30:57.725Z,70.92
2022-08-26T11:34:02.662Z,70.95
2022-08-26T11:36:47.872Z,70.49
2022-08-26T11:39:20.601Z,70.13
2022-08-26T11:41:52.646Z,70.16
2022-08-26T11:44:26.049Z,69.74
2022-08-26T11:46:59.737Z,69.48
2022-08-26T11:49:28.527Z,68.89
2022-08-26T11:55:43.495Z,67.58
2022-08-26T11:58:31.468Z,66.93
2022-08-26T12:10:07.908Z,66.41
2022-08-26T12:12:58.850Z,66.32
2022-08-26T12:15:53.503Z,66.03
2022-08-26T12:22:34.689Z,65.48
2022-08-26T12:25:10.215Z,64.92
2022-08-26T12:27:45.570Z,64.85
2022-08-26T12:34:44.183Z,65.10
2022-08-26T12:37:35.147Z,64.84
2022-08-26T12:44:37.924Z,65.08
2022-08-26T12:47:32.752Z,65.00
2022-08-26T12:50:47.926Z,64.44
2022-08-26T12:53:16.684Z,63.95
2022-08-26T12:55:50.486Z,64.14
2022-08-26T13:01:58.103Z,63.47
2022-08-26T13:04:46.266Z,63.36
2022-08-26T13:07:33.328Z,62.63
2022-08-26T13:14:38.678Z,62.65
2022-08-26T13:17:05.484Z,62.63
2022-08-26T13:23:24.262Z,62.08
2022-08-26T13:29:32.688Z,61.37
2022-08-26T13:32:00.268Z,60.68
2022-08-26T13:34:27.722Z,60.46
2022-08-26T13:37:45.544Z,60.24
2022-08-26T13:43:58.165Z,60.07
2022-08-26T13:50:17.651Z,60.33
2022-08-26T13:52:44.413Z,60.60
2022-08-26T13:55:11.202Z,61.15
2022-08-26T13:57:38.583Z,61.19
2022-08-26T14:00:06.404Z,61.19
2022-08-26T14:02:38.058Z,61.03
2022-08-26T14:05:05.719Z,61.23
2022-08-26T14:07:32.531Z,61.45
2022-08-26T14:09:59.416Z,61.36
2022-08-26T14:12:26.211Z,61.33
2022-08-26T14:19:05.831Z,60.99
2022-08-26T14:21:53.113Z,60.85
2022-08-26T14:24:40.231Z,60.23
2022-08-26T14:27:59.689Z,60.44
2022-08-26T14:34:20.394Z,60.24
2022-08-26T14:41:54.070Z,60.31
2022-08-26T14:44:44.541Z,60.30
2022-08-26T14:47:31.672Z,60.01
2022-08-26T14:50:25.474Z,59.81
2022-08-26T14:53:31.099Z,59.50
2022-08-26T14:59:50.604Z,59.19
2022-08-26T15:02:32.549Z,58.87
2022-08-26T15:20:59.628Z,58.46
2022-08-26T15:23:27.053Z,58.55
2022-08-26T15:25:54.714Z,58.44
2022-08-26T15:28:22.356Z,57.84
2022-08-26T15:30:51.277Z,57.87
2022-08-26T15:37:08.802Z,57.48
2022-08-26T15:43:29.152Z,57.26
2022-08-26T15:50:07.638Z,56.53
2022-08-26T15:52:34.424Z,56.12
2022-08-26T16:06:28.352Z,55.94
2022-08-26T16:08:56.261Z,55.94
2022-08-26T16:11:24.220Z,55.42
2022-08-26T16:13:51.339Z,55.62
2022-08-26T16:16:19.580Z,55.74
2022-08-26T16:18:46.366Z,55.55
2022-08-26T16:21:19.487Z,55.81
2022-08-26T16:23:47.296Z,55.55
2022-08-26T16:26:17.812Z,55.26
2022-08-26T16:41:16.679Z,54.79
2022-08-26T16:43:43.452Z,55.03
2022-08-26T16:46:11.396Z,54.42
2022-08-26T16:48:39.624Z,54.60
2022-08-26T16:55:15.858Z,54.63
2022-08-26T16:57:44.471Z,54.89
2022-08-26T17:00:17.114Z,54.45
2022-08-26T17:02:44.901Z,54.24
2022-08-26T17:05:12.150Z,54.66
2022-08-26T17:07:39.617Z,54.78
2022-08-26T17:10:07.744Z,54.91
2022-08-26T17:12:36.613Z,54.79
2022-08-26T17:15:06.575Z,54.66
2022-08-26T17:25:26.160Z,55.15
2022-08-26T17:28:13.728Z,55.23
2022-08-26T17:31:01.621Z,55.07
2022-08-26T17:33:53.358Z,54.88
2022-08-26T17:40:24.534Z,54.16
2022-08-26T17:43:12.487Z,54.49
2022-08-26T17:46:04.529Z,54.98
2022-08-26T17:48:55.047Z,54.84
2022-08-26T17:55:45.149Z,54.85
2022-08-26T17:58:32.359Z,54.90
2022-08-26T18:01:26.142Z,54.64
2022-08-26T18:04:14.889Z,55.18
2022-08-26T18:07:02.054Z,55.15
2022-08-26T18:09:49.231Z,54.53
2022-08-26T18:12:36.994Z,54.27
2022-08-26T18:15:24.177Z,54.13
2022-08-26T18:22:12.201Z,54.09
2022-08-26T18:25:05.408Z,54.33
2022-08-26T18:27:52.528Z,54.93
2022-08-26T18:30:41.876Z,54.30
2022-08-26T18:33:29.022Z,54.27
2022-08-26T18:36:22.308Z,54.12
2022-08-26T18:39:11.500Z,53.97
2022-08-26T18:41:58.940Z,54.08
2022-08-26T18:44:46.028Z,53.98
2022-08-26T18:54:59.599Z,53.89
2022-08-26T18:57:27.483Z,53.75
2022-08-26T18:59:54.202Z,53.66
2022-08-26T19:03:18.927Z,55.26
2022-08-26T19:05:46.566Z,56.41
2022-08-26T19:12:43.936Z,58.43
2022-08-26T19:15:11.192Z,58.97
2022-08-26T19:17:37.994Z,59.25
2022-08-26T19:20:05.658Z,59.65
2022-08-26T19:22:32.492Z,59.90
2022-08-26T19:24:59.222Z,60.20
2022-08-26T19:27:25.947Z,60.57
2022-08-26T19:29:52.750Z,60.79
2022-08-26T19:32:24.295Z,61.29
2022-08-26T19:38:42.949Z,62.08
2022-08-26T19:41:14.885Z,62.53
2022-08-26T19:43:41.515Z,62.47
2022-08-26T19:46:21.767Z,62.96
2022-08-26T19:49:07.260Z,63.71
2022-08-26T19:55:48.541Z,64.74
2022-08-26T19:58:15.259Z,65.01
2022-08-26T20:00:53.041Z,66.08
2022-08-26T20:03:19.825Z,66.48
2022-08-26T20:05:50.631Z,67.11
2022-08-26T20:12:41.836Z,67.65
2022-08-26T20:15:11.993Z,67.92
2022-08-26T20:18:00.900Z,68.49
2022-08-26T20:20:46.542Z,68.74
2022-08-26T20:27:07.698Z,69.35
2022-08-26T20:33:15.552Z,70.05
2022-08-26T20:35:42.634Z,70.51
2022-08-26T20:38:20.846Z,71.04
2022-08-26T20:44:54.374Z,71.24
2022-08-26T20:51:12.414Z,71.63
2022-08-26T20:57:25.692Z,72.48
2022-08-26T20:59:52.430Z,72.62
2022-08-26T21:02:19.327Z,72.98
2022-08-26T21:04:46.164Z,73.29
2022-08-26T21:07:13.710Z,73.59
2022-08-26T21:09:40.654Z,74.09
2022-08-26T21:12:09.043Z,74.28
2022-08-26T21:14:36.881Z,74.34
2022-08-26T21:17:04.216Z,74.54
2022-08-26T21:19:31.096Z,74.70
2022-08-26T21:21:59.021Z,74.98
2022-08-26T21:24:25.927Z,74.96
2022-08-26T21:26:52.789Z,75.24
2022-08-26T21:29:22.065Z,75.21
2022-08-26T21:35:39.190Z,75.00
2022-08-26T21:38:05.961Z,75.42
2022-08-26T21:40:33.763Z,75.53
2022-08-26T21:43:00.653Z,75.76
2022-08-26T21:45:27.576Z,75.90
2022-08-26T21:47:54.587Z,76.09
2022-08-26T21:50:21.507Z,76.11
2022-08-26T21:52:48.387Z,76.37
2022-08-26T21:55:15.265Z,76.28
2022-08-26T21:57:42.008Z,76.40
2022-08-26T22:00:10.279Z,76.50
2022-08-26T22:02:37.241Z,76.61
2022-08-26T22:05:04.438Z,76.78
2022-08-26T22:07:31.415Z,76.93
2022-08-26T22:09:58.180Z,76.99
2022-08-26T22:12:25.430Z,77.02
2022-08-26T22:14:52.185Z,77.09
2022-08-26T22:17:18.927Z,77.08
2022-08-26T22:19:46.715Z,77.02
2022-08-26T22:22:14.554Z,76.98
2022-08-26T22:24:43.311Z,77.03
2022-08-26T22:27:12.058Z,77.32
2022-08-26T22:29:39.204Z,77.09
2022-08-26T22:32:06.270Z,77.07
2022-08-26T22:34:33.804Z,77.02
2022-08-26T22:37:02.873Z,77.41
2022-08-26T22:39:29.646Z,77.00
2022-08-26T22:41:57.276Z,77.10
2022-08-26T22:44:25.497Z,77.16
2022-08-26T22:46:57.076Z,77.19
2022-08-26T22:49:24.653Z,77.11
2022-08-26T22:51:51.443Z,77.28
2022-08-26T22:54:18.489Z,77.27
2022-08-26T22:56:45.518Z,77.33
2022-08-26T22:59:13.181Z,77.41
2022-08-26T23:01:43.625Z,77.55
2022-08-26T23:04:11.679Z,77.75
2022-08-26T23:06:40.911Z,78.06
2022-08-26T23:09:08.359Z,78.19
2022-08-26T23:11:35.711Z,78.22
2022-08-26T23:18:00.735Z,78.29
2022-08-26T23:20:28.757Z,78.34
2022-08-26T23:22:56.368Z,78.45
2022-08-26T23:25:23.266Z,78.40
2022-08-26T23:27:52.052Z,78.36
2022-08-26T23:30:22.058Z,78.50
2022-08-26T23:32:49.322Z,78.04
2022-08-26T23:35:21.531Z,78.20
2022-08-26T23:37:52.579Z,78.07
2022-08-26T23:40:25.614Z,78.13
2022-08-26T23:42:54.893Z,78.11
2022-08-26T23:45:22.797Z,78.57
2022-08-26T23:47:52.576Z,78.61
2022-08-26T23:50:22.237Z,78.47
2022-08-26T23:53:08.716Z,78.68
2022-08-26T23:55:38.047Z,78.55
2022-08-26T23:58:06.345Z,78.49
